createdAt,value
2022-10-10T00:01:20.553Z,88.40
2022-10-10T00:03:47.414Z,88.93
2022-10-10T00:06:15.529Z,88.00
2022-10-10T00:08:42.734Z,88.05
2022-10-10T00:11:10.358Z,87.61
2022-10-10T00:13:37.003Z,88.11
2022-10-10T00:16:03.703Z,88.24
2022-10-10T00:18:30.800Z,88.05
2022-10-10T00:20:57.505Z,87.99
2022-10-10T00:23:24.785Z,87.67
2022-10-10T00:25:51.674Z,87.38
2022-10-10T00:28:18.646Z,87.39
2022-10-10T00:30:45.688Z,87.23
2022-10-10T00:33:12.699Z,88.95
2022-10-10T00:35:39.420Z,88.70
2022-10-10T00:38:06.117Z,89.01
2022-10-10T00:40:33.061Z,88.91
2022-10-10T00:43:00.211Z,89.09
2022-10-10T00:45:39.316Z,88.76
2022-10-10T00:48:12.320Z,89.15
2022-10-10T00:51:01.225Z,89.23
2022-10-10T07:56:07.449Z,88.67
2022-10-10T08:16:23.631Z,87.58
2022-10-10T08:30:24.728Z,83.61
2022-10-10T08:42:53.531Z,82.58
2022-10-10T08:54:34.711Z,79.31
2022-10-10T08:57:05.448Z,80.24
2022-10-10T09:10:12.141Z,79.49
2022-10-10T09:12:44.661Z,78.84
2022-10-10T09:15:22.054Z,79.35
2022-10-10T09:18:25.623Z,79.67
2022-10-10T09:21:04.281Z,79.04
2022-10-10T09:23:46.146Z,78.63
2022-10-10T09:26:14.829Z,77.94
2022-10-10T09:29:23.278Z,76.65
2022-10-10T09:31:56.051Z,77.53
2022-10-10T09:34:25.625Z,76.10
2022-10-10T09:36:56.086Z,76.33
2022-10-10T09:39:27.865Z,75.48
2022-10-10T09:41:59.644Z,76.00
2022-10-10T09:44:27.215Z,75.53
2022-10-10T09:46:54.129Z,75.13
2022-10-10T09:49:21.509Z,74.16
2022-10-10T09:51:49.586Z,73.36
2022-10-10T09:54:18.711Z,73.96
2022-10-10T09:56:54.034Z,73.68
2022-10-10T09:59:41.113Z,72.27
2022-10-10T10:02:22.752Z,73.29
2022-10-10T10:04:50.790Z,73.38
2022-10-10T10:07:36.396Z,74.10
2022-10-10T10:10:19.661Z,72.01
2022-10-10T10:12:46.509Z,72.40
2022-10-10T10:15:25.038Z,72.31
2022-10-10T10:18:20.877Z,73.30
2022-10-10T10:20:51.119Z,72.91
2022-10-10T10:23:34.277Z,73.26
2022-10-10T10:26:38.153Z,73.02
2022-10-10T10:29:04.722Z,73.45
2022-10-10T10:31:52.372Z,72.44
2022-10-10T10:34:43.443Z,72.36
2022-10-10T10:37:25.813Z,71.25
2022-10-10T10:40:28.060Z,72.34
2022-10-10T10:43:09.880Z,73.58
2022-10-10T10:45:47.392Z,71.49
2022-10-10T10:48:29.276Z,69.38
2022-10-10T10:50:57.873Z,70.86
2022-10-10T10:53:45.253Z,69.37
2022-10-10T10:59:30.382Z,70.40
2022-10-10T11:02:08.441Z,68.37
2022-10-10T11:05:18.453Z,68.66
2022-10-10T11:08:13.480Z,68.18
2022-10-10T11:11:07.832Z,68.40
2022-10-10T11:13:40.912Z,68.37
2022-10-10T11:16:43.949Z,68.14
2022-10-10T11:19:15.366Z,69.64
2022-10-10T11:21:52.608Z,68.14
2022-10-10T11:24:34.063Z,66.15
2022-10-10T11:27:06.240Z,66.72
2022-10-10T11:29:53.033Z,67.00
2022-10-10T11:32:30.684Z,68.25
2022-10-10T11:35:47.025Z,67.19
2022-10-10T11:38:55.431Z,65.53
2022-10-10T11:41:27.149Z,65.45
2022-10-10T11:44:20.907Z,64.77
2022-10-10T11:47:00.712Z,65.91
2022-10-10T11:49:36.113Z,64.36
2022-10-10T11:52:35.902Z,65.38
2022-10-10T11:55:12.901Z,62.43
2022-10-10T11:57:45.065Z,63.55
2022-10-10T12:00:17.615Z,64.06
2022-10-10T12:02:46.554Z,62.86
2022-10-10T12:05:37.811Z,61.44
2022-10-10T12:08:33.216Z,62.70
2022-10-10T12:11:25.018Z,62.11
2022-10-10T12:13:58.581Z,60.01
2022-10-10T12:16:30.648Z,61.28
2022-10-10T12:19:27.000Z,61.01
2022-10-10T12:22:05.885Z,60.35
2022-10-10T12:24:35.712Z,59.15
2022-10-10T12:27:04.364Z,60.60
2022-10-10T12:30:09.259Z,56.46
2022-10-10T12:32:43.831Z,58.28
2022-10-10T12:35:36.175Z,57.06
2022-10-10T12:38:05.900Z,56.41
2022-10-10T12:40:34.189Z,55.31
2022-10-10T12:43:44.143Z,56.51
2022-10-10T12:46:22.324Z,54.30
2022-10-10T12:49:05.588Z,55.63
2022-10-10T12:51:36.335Z,55.20
2022-10-10T12:54:06.288Z,53.08
2022-10-10T12:56:35.844Z,53.65
2022-10-10T12:59:03.027Z,54.56
2022-10-10T13:01:34.613Z,53.16
2022-10-10T13:04:01.358Z,54.35
2022-10-10T13:06:40.921Z,52.78
2022-10-10T13:09:18.410Z,53.15
2022-10-10T13:12:31.110Z,52.57
2022-10-10T13:14:58.233Z,52.50
2022-10-10T13:17:29.524Z,51.54
2022-10-10T13:19:58.934Z,51.67
2022-10-10T13:22:27.251Z,51.40
2022-10-10T13:24:54.051Z,50.82
2022-10-10T13:27:31.270Z,49.95
2022-10-10T13:29:58.283Z,52.67
2022-10-10T13:32:28.594Z,52.61
2022-10-10T13:35:03.899Z,52.58
2022-10-10T13:37:31.059Z,52.58
2022-10-10T13:39:58.154Z,51.82
2022-10-10T13:42:37.824Z,50.73
2022-10-10T13:45:29.338Z,52.56
2022-10-10T13:48:02.836Z,53.13
2022-10-10T13:50:53.356Z,52.24
2022-10-10T13:53:30.226Z,53.79
2022-10-10T13:56:02.029Z,53.92
2022-10-10T13:58:32.291Z,55.07
2022-10-10T14:01:01.729Z,54.33
2022-10-10T14:03:31.116Z,53.93
2022-10-10T14:05:57.828Z,54.43
2022-10-10T14:08:28.159Z,54.14
2022-10-10T14:11:06.486Z,54.10
2022-10-10T14:13:37.168Z,53.74
2022-10-10T14:16:11.181Z,54.86
2022-10-10T14:18:37.821Z,55.26
2022-10-10T14:21:05.003Z,55.10
2022-10-10T14:23:32.021Z,54.85
2022-10-10T14:25:58.650Z,54.80
2022-10-10T14:28:27.528Z,54.71
2022-10-10T14:30:54.794Z,55.35
2022-10-10T14:33:21.838Z,55.38
2022-10-10T14:35:51.165Z,56.19
2022-10-10T14:38:17.729Z,56.66
2022-10-10T14:40:46.474Z,56.68
2022-10-10T14:43:13.356Z,56.65
2022-10-10T14:45:40.424Z,58.06
2022-10-10T14:48:07.138Z,57.74
2022-10-10T14:50:36.698Z,58.99
2022-10-10T14:53:04.390Z,58.18
2022-10-10T14:55:30.998Z,58.31
2022-10-10T14:57:57.856Z,58.87
2022-10-10T15:00:26.703Z,58.85
2022-10-10T15:02:53.636Z,59.80
2022-10-10T15:05:20.457Z,59.95
2022-10-10T15:07:48.329Z,60.12
2022-10-10T15:13:02.368Z,60.59
2022-10-10T15:15:29.258Z,60.72
2022-10-10T15:17:57.977Z,60.20
2022-10-10T15:20:31.045Z,60.90
2022-10-10T15:22:59.689Z,61.10
2022-10-10T15:25:32.347Z,61.04
2022-10-10T15:28:00.542Z,61.19
2022-10-10T15:30:27.181Z,61.71
2022-10-10T15:32:54.018Z,61.73
2022-10-10T15:35:23.152Z,61.93
2022-10-10T15:37:49.846Z,62.02
2022-10-10T15:40:22.955Z,61.89
2022-10-10T15:42:50.600Z,62.52
2022-10-10T15:45:37.003Z,62.40
2022-10-10T15:48:05.006Z,63.19
2022-10-10T15:50:32.529Z,62.88
2022-10-10T15:52:59.064Z,62.99
2022-10-10T15:55:25.659Z,63.79
2022-10-10T15:57:52.269Z,63.93
2022-10-10T16:00:18.880Z,64.09
2022-10-10T16:02:45.420Z,63.99
2022-10-10T16:05:12.012Z,64.36
2022-10-10T16:07:47.736Z,64.39
2022-10-10T16:10:15.298Z,64.38
2022-10-10T16:12:41.862Z,63.91
2022-10-10T16:15:09.194Z,63.88
2022-10-10T16:17:35.818Z,64.21
2022-10-10T16:20:02.583Z,63.66
2022-10-10T16:22:29.237Z,64.15
2022-10-10T16:27:42.982Z,64.00
2022-10-10T16:30:10.208Z,63.90
2022-10-10T16:32:41.697Z,64.12
2022-10-10T16:35:09.181Z,63.84
2022-10-10T16:37:35.755Z,63.84
2022-10-10T16:40:02.282Z,63.68
2022-10-10T16:42:28.870Z,63.73
2022-10-10T16:44:55.482Z,64.10
2022-10-10T16:47:22.224Z,64.29
2022-10-10T16:49:48.765Z,64.12
2022-10-10T16:52:15.466Z,64.48
2022-10-10T16:54:42.081Z,64.83
2022-10-10T16:57:09.055Z,65.01
2022-10-10T16:59:35.583Z,65.22
2022-10-10T17:02:02.176Z,65.94
2022-10-10T17:04:28.703Z,66.45
2022-10-10T17:06:55.345Z,66.18
2022-10-10T17:09:23.676Z,66.61
2022-10-10T17:11:51.458Z,66.87
2022-10-10T17:14:18.593Z,67.16
2022-10-10T17:17:10.334Z,67.48
2022-10-10T17:19:32.802Z,67.79
2022-10-10T17:21:59.637Z,68.70
2022-10-10T17:24:26.487Z,69.09
2022-10-10T17:26:53.051Z,69.65
2022-10-10T17:29:19.739Z,70.05
2022-10-10T17:31:46.401Z,70.59
2022-10-10T17:34:13.042Z,70.35
2022-10-10T17:36:39.655Z,70.94
2022-10-10T17:39:07.599Z,71.18
2022-10-10T17:41:34.588Z,71.67
2022-10-10T17:44:01.473Z,72.04
2022-10-10T17:46:34.907Z,72.46
2022-10-10T17:49:04.618Z,72.17
2022-10-10T17:51:31.323Z,72.83
2022-10-10T17:54:02.208Z,72.64
2022-10-10T17:56:29.054Z,73.35
2022-10-10T17:58:56.086Z,73.85
2022-10-10T18:01:23.112Z,74.08
2022-10-10T18:03:49.845Z,73.77
2022-10-10T18:06:18.789Z,74.09
2022-10-10T18:08:53.729Z,74.61
2022-10-10T18:11:23.779Z,75.05
2022-10-10T18:13:51.074Z,75.03
2022-10-10T18:16:21.606Z,75.89
2022-10-10T18:18:51.562Z,75.56
2022-10-10T18:21:20.305Z,75.84
2022-10-10T18:23:48.241Z,75.30
2022-10-10T18:26:19.229Z,75.82
2022-10-10T18:28:45.942Z,76.11
2022-10-10T18:31:18.100Z,76.10
2022-10-10T18:33:45.103Z,75.28
2022-10-10T18:36:15.625Z,76.74
2022-10-10T18:38:42.173Z,76.83
2022-10-10T18:41:18.186Z,76.84
2022-10-10T18:43:45.764Z,76.84
2022-10-10T18:46:14.690Z,76.83
2022-10-10T18:48:42.150Z,76.67
2022-10-10T18:51:15.196Z,76.56
2022-10-10T18:53:45.968Z,76.72
2022-10-10T18:56:14.700Z,77.11
2022-10-10T18:58:41.649Z,76.75
2022-10-10T19:01:11.298Z,77.19
2022-10-10T19:03:39.214Z,76.88
2022-10-10T19:06:07.706Z,77.00
2022-10-10T19:08:34.672Z,76.90
2022-10-10T19:11:02.421Z,76.76
2022-10-10T19:13:29.484Z,77.33
2022-10-10T19:15:56.651Z,77.76
2022-10-10T19:18:23.517Z,77.37
2022-10-10T19:20:50.249Z,77.75
2022-10-10T19:23:17.152Z,77.66
2022-10-10T19:25:46.316Z,78.17
2022-10-10T19:28:12.998Z,77.61
2022-10-10T19:30:41.545Z,77.65
2022-10-10T19:33:08.833Z,77.71
2022-10-10T19:35:40.590Z,78.11
2022-10-10T19:38:09.215Z,78.44
2022-10-10T19:40:36.218Z,77.89
2022-10-10T19:43:02.925Z,78.37
2022-10-10T19:45:29.479Z,78.01
2022-10-10T19:47:56.101Z,78.52
2022-10-10T19:50:22.702Z,78.70
2022-10-10T19:52:49.350Z,78.63
2022-10-10T19:55:18.463Z,80.41
2022-10-10T19:57:45.062Z,79.97
2022-10-10T20:00:12.264Z,79.61
2022-10-10T20:02:38.898Z,79.95
2022-10-10T20:05:05.829Z,80.40
2022-10-10T20:07:32.562Z,79.78
2022-10-10T20:09:59.103Z,81.26
2022-10-10T20:12:25.711Z,81.29
2022-10-10T20:14:52.659Z,80.50
2022-10-10T20:17:19.333Z,80.76
2022-10-10T20:19:46.037Z,80.58
2022-10-10T20:22:12.702Z,80.74
2022-10-10T20:24:39.304Z,81.25
2022-10-10T20:27:06.023Z,81.49
2022-10-10T20:29:32.616Z,82.60
2022-10-10T20:31:59.193Z,82.08
2022-10-10T20:34:25.782Z,82.62
2022-10-10T20:36:53.753Z,82.85
2022-10-10T20:39:20.350Z,82.56
2022-10-10T20:41:47.045Z,82.61
2022-10-10T20:44:14.958Z,82.53
2022-10-10T20:46:43.921Z,82.81
2022-10-10T20:49:16.479Z,83.48
2022-10-10T20:51:48.429Z,83.41
2022-10-10T20:54:17.444Z,82.35
2022-10-10T20:56:44.864Z,82.30
2022-10-10T20:59:12.706Z,82.27
2022-10-10T21:01:39.573Z,83.10
2022-10-10T21:04:10.017Z,83.25
2022-10-10T21:06:38.048Z,83.90
2022-10-10T21:09:07.737Z,83.62
2022-10-10T21:11:35.555Z,82.96
2022-10-10T21:14:02.673Z,82.99
2022-10-10T21:16:37.996Z,82.68
2022-10-10T21:19:06.832Z,82.54
2022-10-10T21:21:35.142Z,82.56
2022-10-10T21:24:03.844Z,82.56
2022-10-10T21:26:30.880Z,82.41
2022-10-10T21:28:58.241Z,82.99
2022-10-10T21:31:27.195Z,83.59
2022-10-10T21:33:54.959Z,83.25
2022-10-10T21:36:22.614Z,83.85
2022-10-10T21:38:49.277Z,84.16
2022-10-10T21:41:19.470Z,84.61
2022-10-10T21:43:48.003Z,83.37
2022-10-10T21:46:17.394Z,83.77
2022-10-10T21:48:44.271Z,83.65
2022-10-10T21:51:11.869Z,84.49
2022-10-10T21:53:38.524Z,84.47
2022-10-10T21:56:08.045Z,84.56
2022-10-10T21:58:36.869Z,84.60
2022-10-10T22:01:11.101Z,83.87
2022-10-10T22:03:38.859Z,83.52
2022-10-10T22:06:10.766Z,83.19
2022-10-10T22:08:38.673Z,83.43
2022-10-10T22:11:11.173Z,83.96
2022-10-10T22:13:37.935Z,84.11
2022-10-10T22:16:06.166Z,84.39
2022-10-10T22:18:33.136Z,84.86
2022-10-10T22:21:03.292Z,85.47
2022-10-10T22:23:30.530Z,85.39
2022-10-10T22:25:57.088Z,85.78
2022-10-10T22:28:23.752Z,85.80
2022-10-10T22:30:50.521Z,85.10
2022-10-10T22:33:17.235Z,85.04
2022-10-10T22:35:43.821Z,84.24
2022-10-10T22:38:10.438Z,84.31
2022-10-10T22:40:37.160Z,85.04
2022-10-10T22:43:03.831Z,84.96
2022-10-10T22:45:30.400Z,84.59
2022-10-10T22:47:57.115Z,84.97
2022-10-10T22:50:23.793Z,85.01
2022-10-10T22:52:50.623Z,85.39
2022-10-10T22:55:18.719Z,85.23
2022-10-10T22:57:46.267Z,84.93
2022-10-10T23:00:13.864Z,85.07
2022-10-10T23:02:40.471Z,86.22
2022-10-10T23:05:07.952Z,86.35
2022-10-10T23:07:34.653Z,86.55
2022-10-10T23:10:01.325Z,85.39
2022-10-10T23:12:27.952Z,85.56
2022-10-10T23:14:54.544Z,86.10
2022-10-10T23:17:21.229Z,85.86
2022-10-10T23:19:47.941Z,85.81
2022-10-10T23:22:14.532Z,86.58
2022-10-10T23:24:41.405Z,85.72
2022-10-10T23:27:08.114Z,86.22
2022-10-10T23:29:34.846Z,86.32
2022-10-10T23:32:01.477Z,86.00
2022-10-10T23:34:28.074Z,86.51
2022-10-10T23:36:54.659Z,87.19
2022-10-10T23:39:21.339Z,87.23
2022-10-10T23:41:48.009Z,87.76
2022-10-10T23:44:14.589Z,88.43
2022-10-10T23:46:41.161Z,88.77
2022-10-10T23:49:07.794Z,88.74
2022-10-10T23:51:34.428Z,89.99
2022-10-10T23:54:01.144Z,90.80
2022-10-10T23:56:27.698Z,90.93
2022-10-10T23:58:54.399Z,90.07
